Hakozaki Maru — JJ3662 — position and weather

sailwx.info

Track history (hours):
 
Tides and Currents Weather Stations Pressure Air Temp Water Temp Dewpoint Dewpoint Depression Visibility Wind Speed Wind Dir Waves Ship Positions

Hakozaki Maru

Last reported at 2015-Feb-27 04:33 UTC. Time now 2015-Feb-27 16:58 UTC.
Position N 34°41' E 135°12'.

Length 31 m; draft 2.5 m.

Type: Tug. MMSI: 431000322.

Date/timePositionNaut miles runAvg speedWind from/ knotsBaromVisibWave heightAir tempDewpointWater temp
2015-Feb-27 04:33N 34°41' E 135°12'0 0.0
2015-Feb-27 03:33N 34°41' E 135°12'0 0.0
2015-Feb-27 02:33N 34°41' E 135°12'0 0.0
2015-Feb-27 01:33N 34°41' E 135°12'0 0.3
2015-Feb-27 00:33N 34°41' E 135°12'3 3.3
2015-Feb-26 23:33N 34°38' E 135°10'2 2.2
2015-Feb-26 22:33N 34°40' E 135°12'1 1.3
2015-Feb-26 21:33N 34°41' E 135°12'2 0.2
2015-Feb-26 08:18N 34°40' E 135°15'1 0.9
2015-Feb-26 07:33N 34°41' E 135°14'2 1.8
2015-Feb-26 06:33N 34°41' E 135°12'0 0.0
2015-Feb-26 05:33N 34°41' E 135°12'0 0.0
2015-Feb-26 04:33N 34°41' E 135°12'0 0.0
2015-Feb-26 03:33N 34°41' E 135°12'0 0.0
2015-Feb-26 02:33N 34°41' E 135°12'0 0.0
2015-Feb-26 01:33N 34°41' E 135°12'3 3.0
2015-Feb-26 00:33N 34°42' E 135°16'1 0.7
2015-Feb-25 23:33N 34°42' E 135°15'2 2.3
2015-Feb-25 22:33N 34°41' E 135°12'0 0.0
2015-Feb-25 21:33N 34°41' E 135°12'0 0.0
2015-Feb-25 20:33N 34°41' E 135°12'0 0.0
2015-Feb-25 07:21N 34°41' E 135°12'3 4.3
2015-Feb-25 06:33N 34°39' E 135°15'3 3.2
2015-Feb-25 05:33N 34°41' E 135°12'0 0.3
2015-Feb-25 04:33N 34°41' E 135°12'0 0.0
2015-Feb-25 03:33N 34°41' E 135°12'0 0.0
2015-Feb-25 02:33N 34°41' E 135°12'0 0.0
2015-Feb-25 01:33N 34°41' E 135°12'0 0.0
2015-Feb-25 00:33N 34°41' E 135°12'3 2.7
2015-Feb-24 23:33N 34°42' E 135°15'2 2.1
2015-Feb-24 22:33N 34°41' E 135°18'1 0.6
2015-Feb-24 21:33N 34°41' E 135°18'4 4.5
2015-Feb-24 20:33N 34°41' E 135°12'4 0.3
2015-Feb-24 05:33N 34°41' E 135°17'4 4.1
2015-Feb-24 04:33N 34°41' E 135°12'0 0.0
2015-Feb-24 03:33N 34°41' E 135°12'0 0.0
2015-Feb-24 02:33N 34°41' E 135°12'0 0.0
2015-Feb-24 01:33N 34°41' E 135°12'0 0.0
2015-Feb-24 00:33N 34°41' E 135°12'2 2.4
2015-Feb-23 23:33N 34°41' E 135°15'1 1.1
2015-Feb-23 22:33N 34°40' E 135°15'2 2.5
2015-Feb-23 21:33N 34°41' E 135°12'2 0.2
2015-Feb-23 09:21N 34°42' E 135°15'1 0.8
2015-Feb-23 08:33N 34°42' E 135°15'3 2.6
2015-Feb-23 07:33N 34°41' E 135°12'0 0.0
2015-Feb-23 06:33N 34°41' E 135°12'0 0.0
2015-Feb-23 05:33N 34°41' E 135°12'0 0.0
2015-Feb-23 04:33N 34°41' E 135°12'0 0.0
2015-Feb-23 03:33N 34°41' E 135°12'2 1.3
2015-Feb-23 02:03N 34°42' E 135°14'2 3.8
2015-Feb-23 01:34N 34°41' E 135°12'0 0.0
2015-Feb-23 00:26N 34°41' E 135°12'0 0.0
2015-Feb-22 23:34N 34°41' E 135°12'2 0.2
2015-Feb-22 12:33N 34°40' E 135°14'1 0.5
2015-Feb-22 11:33N 34°41' E 135°14'2 1.8
2015-Feb-22 10:33N 34°41' E 135°12'0 0.0
2015-Feb-22 09:33N 34°41' E 135°12'0 0.0
2015-Feb-22 08:33N 34°41' E 135°12'0 0.0
2015-Feb-22 07:33N 34°41' E 135°12'0 0.0
2015-Feb-22 06:33N 34°41' E 135°12'0 0.0
2015-Feb-22 05:33N 34°41' E 135°12'0 0.0
2015-Feb-22 04:33N 34°41' E 135°12'2 2.1
2015-Feb-22 03:33N 34°41' E 135°15'1 1.5
2015-Feb-22 02:33N 34°40' E 135°13'0 0.0
2015-Feb-22 01:33N 34°40' E 135°13'0 0.3
2015-Feb-22 00:33N 34°40' E 135°14'1 1.0
2015-Feb-21 23:33N 34°41' E 135°13'0 0.4
2015-Feb-21 22:33N 34°41' E 135°12'0 0.0
2015-Feb-21 21:33N 34°41' E 135°12'0 0.0
2015-Feb-20 09:04N 34°41' E 135°12'1 2.8
2015-Feb-20 08:33N 34°40' E 135°14'1 1.4
2015-Feb-20 07:33N 34°41' E 135°12'0 0.0
2015-Feb-20 06:33N 34°41' E 135°12'0 0.0
2015-Feb-20 05:33N 34°41' E 135°12'0 0.0
2015-Feb-20 04:33N 34°41' E 135°12'0 0.0
2015-Feb-20 03:33N 34°41' E 135°12'0 0.0
2015-Feb-20 02:33N 34°41' E 135°12'0 0.0
2015-Feb-20 01:33N 34°41' E 135°12'0 0.0
2015-Feb-20 00:33N 34°41' E 135°12'0 0.0
2015-Feb-19 23:33N 34°41' E 135°12'5 4.6
2015-Feb-19 22:33N 34°42' E 135°18'1 0.7
2015-Feb-19 21:33N 34°42' E 135°17'4 3.9
2015-Feb-19 20:33N 34°41' E 135°12'4 0.1
2015-Feb-18 07:33N 34°41' E 135°18'4 4.4
2015-Feb-18 06:33N 34°41' E 135°12'0 0.0
2015-Feb-18 05:33N 34°41' E 135°12'0 0.0
2015-Feb-18 04:33N 34°41' E 135°12'0 0.0
2015-Feb-18 03:33N 34°41' E 135°12'0 0.0
2015-Feb-18 02:33N 34°41' E 135°12'0 0.0
2015-Feb-18 01:33N 34°41' E 135°12'0 0.1
2015-Feb-18 00:33N 34°41' E 135°12'3 3.4
2015-Feb-17 23:34N 34°42' E 135°16'2 1.8
2015-Feb-17 22:34N 34°41' E 135°18'2 2.0
2015-Feb-17 21:33N 34°42' E 135°16'3 3.0
2015-Feb-17 20:33N 34°41' E 135°12'0 0.0
2015-Feb-17 06:33N 34°41' E 135°12'3 2.9
2015-Feb-17 05:33N 34°42' E 135°16'2 1.9
2015-Feb-17 04:33N 34°40' E 135°15'  
Track history (hours):
 
Tides and Currents Weather Stations Pressure Air Temp Water Temp Dewpoint Dewpoint Depression Visibility Wind Speed Wind Dir Waves Ship Positions

Hakozaki Maru

Last reported at 2015-Feb-27 04:33 UTC. Time now 2015-Feb-27 16:58 UTC.
Position N 34°41' E 135°12'.

Length 31 m; draft 2.5 m.

Type: Tug. MMSI: 431000322.

Date/timePositionNaut miles runAvg speedWind from/ knotsBaromVisibWave heightAir tempDewpointWater temp
2015-Feb-27 04:33N 34°41' E 135°12'0 0.0
2015-Feb-27 03:33N 34°41' E 135°12'0 0.0
2015-Feb-27 02:33N 34°41' E 135°12'0 0.0
2015-Feb-27 01:33N 34°41' E 135°12'0 0.3
2015-Feb-27 00:33N 34°41' E 135°12'3 3.3
2015-Feb-26 23:33N 34°38' E 135°10'2 2.2
2015-Feb-26 22:33N 34°40' E 135°12'1 1.3
2015-Feb-26 21:33N 34°41' E 135°12'2 0.2
2015-Feb-26 08:18N 34°40' E 135°15'1 0.9
2015-Feb-26 07:33N 34°41' E 135°14'2 1.8
2015-Feb-26 06:33N 34°41' E 135°12'0 0.0
2015-Feb-26 05:33N 34°41' E 135°12'0 0.0
2015-Feb-26 04:33N 34°41' E 135°12'0 0.0
2015-Feb-26 03:33N 34°41' E 135°12'0 0.0
2015-Feb-26 02:33N 34°41' E 135°12'0 0.0
2015-Feb-26 01:33N 34°41' E 135°12'3 3.0
2015-Feb-26 00:33N 34°42' E 135°16'1 0.7
2015-Feb-25 23:33N 34°42' E 135°15'2 2.3
2015-Feb-25 22:33N 34°41' E 135°12'0 0.0
2015-Feb-25 21:33N 34°41' E 135°12'0 0.0
2015-Feb-25 20:33N 34°41' E 135°12'0 0.0
2015-Feb-25 07:21N 34°41' E 135°12'3 4.3
2015-Feb-25 06:33N 34°39' E 135°15'3 3.2
2015-Feb-25 05:33N 34°41' E 135°12'0 0.3
2015-Feb-25 04:33N 34°41' E 135°12'0 0.0
2015-Feb-25 03:33N 34°41' E 135°12'0 0.0
2015-Feb-25 02:33N 34°41' E 135°12'0 0.0
2015-Feb-25 01:33N 34°41' E 135°12'0 0.0
2015-Feb-25 00:33N 34°41' E 135°12'3 2.7
2015-Feb-24 23:33N 34°42' E 135°15'2 2.1
2015-Feb-24 22:33N 34°41' E 135°18'1 0.6
2015-Feb-24 21:33N 34°41' E 135°18'4 4.5
2015-Feb-24 20:33N 34°41' E 135°12'4 0.3
2015-Feb-24 05:33N 34°41' E 135°17'4 4.1
2015-Feb-24 04:33N 34°41' E 135°12'0 0.0
2015-Feb-24 03:33N 34°41' E 135°12'0 0.0
2015-Feb-24 02:33N 34°41' E 135°12'0 0.0
2015-Feb-24 01:33N 34°41' E 135°12'0 0.0
2015-Feb-24 00:33N 34°41' E 135°12'2 2.4
2015-Feb-23 23:33N 34°41' E 135°15'1 1.1
2015-Feb-23 22:33N 34°40' E 135°15'2 2.5
2015-Feb-23 21:33N 34°41' E 135°12'2 0.2
2015-Feb-23 09:21N 34°42' E 135°15'1 0.8
2015-Feb-23 08:33N 34°42' E 135°15'3 2.6
2015-Feb-23 07:33N 34°41' E 135°12'0 0.0
2015-Feb-23 06:33N 34°41' E 135°12'0 0.0
2015-Feb-23 05:33N 34°41' E 135°12'0 0.0
2015-Feb-23 04:33N 34°41' E 135°12'0 0.0
2015-Feb-23 03:33N 34°41' E 135°12'2 1.3
2015-Feb-23 02:03N 34°42' E 135°14'2 3.8
2015-Feb-23 01:34N 34°41' E 135°12'0 0.0
2015-Feb-23 00:26N 34°41' E 135°12'0 0.0
2015-Feb-22 23:34N 34°41' E 135°12'2 0.2
2015-Feb-22 12:33N 34°40' E 135°14'1 0.5
2015-Feb-22 11:33N 34°41' E 135°14'2 1.8
2015-Feb-22 10:33N 34°41' E 135°12'0 0.0
2015-Feb-22 09:33N 34°41' E 135°12'0 0.0
2015-Feb-22 08:33N 34°41' E 135°12'0 0.0
2015-Feb-22 07:33N 34°41' E 135°12'0 0.0
2015-Feb-22 06:33N 34°41' E 135°12'0 0.0
2015-Feb-22 05:33N 34°41' E 135°12'0 0.0
2015-Feb-22 04:33N 34°41' E 135°12'2 2.1
2015-Feb-22 03:33N 34°41' E 135°15'1 1.5
2015-Feb-22 02:33N 34°40' E 135°13'0 0.0
2015-Feb-22 01:33N 34°40' E 135°13'0 0.3
2015-Feb-22 00:33N 34°40' E 135°14'1 1.0
2015-Feb-21 23:33N 34°41' E 135°13'0 0.4
2015-Feb-21 22:33N 34°41' E 135°12'0 0.0
2015-Feb-21 21:33N 34°41' E 135°12'0 0.0
2015-Feb-20 09:04N 34°41' E 135°12'1 2.8
2015-Feb-20 08:33N 34°40' E 135°14'1 1.4
2015-Feb-20 07:33N 34°41' E 135°12'0 0.0
2015-Feb-20 06:33N 34°41' E 135°12'0 0.0
2015-Feb-20 05:33N 34°41' E 135°12'0 0.0
2015-Feb-20 04:33N 34°41' E 135°12'0 0.0
2015-Feb-20 03:33N 34°41' E 135°12'0 0.0
2015-Feb-20 02:33N 34°41' E 135°12'0 0.0
2015-Feb-20 01:33N 34°41' E 135°12'0 0.0
2015-Feb-20 00:33N 34°41' E 135°12'0 0.0
2015-Feb-19 23:33N 34°41' E 135°12'5 4.6
2015-Feb-19 22:33N 34°42' E 135°18'1 0.7
2015-Feb-19 21:33N 34°42' E 135°17'4 3.9
2015-Feb-19 20:33N 34°41' E 135°12'4 0.1
2015-Feb-18 07:33N 34°41' E 135°18'4 4.4
2015-Feb-18 06:33N 34°41' E 135°12'0 0.0
2015-Feb-18 05:33N 34°41' E 135°12'0 0.0
2015-Feb-18 04:33N 34°41' E 135°12'0 0.0
2015-Feb-18 03:33N 34°41' E 135°12'0 0.0
2015-Feb-18 02:33N 34°41' E 135°12'0 0.0
2015-Feb-18 01:33N 34°41' E 135°12'0 0.1
2015-Feb-18 00:33N 34°41' E 135°12'3 3.4
2015-Feb-17 23:34N 34°42' E 135°16'2 1.8
2015-Feb-17 22:34N 34°41' E 135°18'2 2.0
2015-Feb-17 21:33N 34°42' E 135°16'3 3.0
2015-Feb-17 20:33N 34°41' E 135°12'0 0.0
2015-Feb-17 06:33N 34°41' E 135°12'3 2.9
2015-Feb-17 05:33N 34°42' E 135°16'2 1.9
2015-Feb-17 04:33N 34°40' E 135°15'  

Dump ship's entire track history